createdAt,value
2023-05-16T00:01:38.117Z,98225.34
2023-05-16T00:04:08.341Z,98222.69
2023-05-16T00:06:37.125Z,98219.97
2023-05-16T00:09:07.703Z,98225.69
2023-05-16T00:11:35.732Z,98223.16
2023-05-16T00:14:03.898Z,98225.19
2023-05-16T00:16:31.922Z,98222.13
2023-05-16T00:19:00.794Z,98230.16
2023-05-16T00:21:30.991Z,98228.91
2023-05-16T00:23:59.060Z,98223.31
2023-05-16T00:26:27.183Z,98229.34
2023-05-16T00:28:57.783Z,98220.44
2023-05-16T00:31:25.930Z,98214.94
2023-05-16T00:33:54.734Z,98224.66
2023-05-16T00:36:23.973Z,98221.38
2023-05-16T00:38:53.399Z,98226.81
2023-05-16T00:41:22.467Z,98222.50
2023-05-16T00:43:50.547Z,98215.25
2023-05-16T00:46:18.751Z,98218.53
2023-05-16T00:48:46.856Z,98204.13
2023-05-16T00:51:14.978Z,98224.34
2023-05-16T00:53:43.281Z,98222.81
2023-05-16T00:56:12.893Z,98228.72
2023-05-16T00:58:40.953Z,98231.47
2023-05-16T01:01:08.993Z,98232.97
2023-05-16T01:03:38.032Z,98232.09
2023-05-16T01:06:07.711Z,98229.25
2023-05-16T01:08:35.749Z,98238.19
2023-05-16T01:11:09.203Z,98229.00
2023-05-16T01:13:49.225Z,98237.56
2023-05-16T01:16:22.506Z,98231.81
2023-05-16T01:18:57.004Z,98232.53
2023-05-16T01:21:39.011Z,98223.16
2023-05-16T01:24:14.050Z,98223.63
2023-05-16T01:26:44.425Z,98214.59
2023-05-16T01:29:12.513Z,98225.78
2023-05-16T01:31:40.532Z,98227.38
2023-05-16T01:34:08.765Z,98230.53
2023-05-16T01:36:41.628Z,98225.91
2023-05-16T01:39:15.905Z,98233.59
2023-05-16T01:41:54.631Z,98235.81
2023-05-16T01:44:26.196Z,98233.50
2023-05-16T01:46:57.658Z,98238.03
2023-05-16T01:49:27.705Z,98237.25
2023-05-16T01:52:00.179Z,98233.47
2023-05-16T01:54:31.468Z,98233.03
2023-05-16T01:57:02.013Z,98237.50
2023-05-16T01:59:30.178Z,98233.47
2023-05-16T02:01:58.454Z,98239.41
2023-05-16T02:04:26.428Z,98234.94
2023-05-16T02:06:54.850Z,98234.88
2023-05-16T02:09:23.065Z,98239.25
2023-05-16T02:11:51.102Z,98230.44
2023-05-16T02:14:20.492Z,98237.75
2023-05-16T02:16:49.337Z,98243.25
2023-05-16T02:19:18.473Z,98245.22
2023-05-16T02:21:46.602Z,98239.44
2023-05-16T02:24:14.610Z,98244.91
2023-05-16T02:26:42.580Z,98250.81
2023-05-16T02:29:10.815Z,98250.66
2023-05-16T02:31:40.320Z,98252.22
2023-05-16T02:34:08.390Z,98255.09
2023-05-16T02:36:36.518Z,98250.53
2023-05-16T02:39:05.653Z,98242.94
2023-05-16T02:41:33.650Z,98250.50
2023-05-16T02:44:04.283Z,98257.09
2023-05-16T02:46:33.812Z,98259.28
2023-05-16T02:49:03.569Z,98253.47
2023-05-16T02:51:31.605Z,98250.31
2023-05-16T02:54:00.927Z,98252.50
2023-05-16T02:56:28.937Z,98251.47
2023-05-16T02:58:56.961Z,98243.34
2023-05-16T03:01:25.070Z,98242.13
2023-05-16T03:03:53.313Z,98246.97
2023-05-16T03:06:22.899Z,98253.31
2023-05-16T03:08:50.949Z,98255.44
2023-05-16T03:11:20.725Z,98266.38
2023-05-16T03:13:49.039Z,98260.84
2023-05-16T03:16:17.469Z,98259.03
2023-05-16T03:18:45.597Z,98264.16
2023-05-16T03:21:13.596Z,98270.16
2023-05-16T03:23:42.955Z,98267.44
2023-05-16T03:26:11.206Z,98271.03
2023-05-16T03:28:39.317Z,98268.41
2023-05-16T03:31:07.512Z,98273.50
2023-05-16T03:33:35.780Z,98267.69
2023-05-16T03:36:03.911Z,98263.91
2023-05-16T03:38:34.294Z,98263.69
2023-05-16T03:41:03.890Z,98259.47
2023-05-16T03:43:31.965Z,98262.66
2023-05-16T03:46:02.056Z,98267.50
2023-05-16T03:48:30.167Z,98275.50
2023-05-16T03:50:58.202Z,98273.72
2023-05-16T03:53:26.202Z,98268.81
2023-05-16T03:55:54.174Z,98275.75
2023-05-16T03:58:23.633Z,98277.28
2023-05-16T04:00:54.050Z,98281.56
2023-05-16T04:03:28.129Z,98285.59
2023-05-16T04:05:56.491Z,98279.03
2023-05-16T04:08:24.516Z,98277.28
2023-05-16T04:10:52.649Z,98278.28
2023-05-16T04:13:20.719Z,98278.34
2023-05-16T04:15:50.137Z,98275.06
2023-05-16T04:18:18.336Z,98279.84
2023-05-16T04:20:47.580Z,98289.06
2023-05-16T04:23:16.101Z,98286.50
2023-05-16T04:25:44.151Z,98281.31
2023-05-16T04:28:12.331Z,98278.59
2023-05-16T04:30:42.719Z,98275.63
2023-05-16T04:33:12.533Z,98284.34
2023-05-16T04:35:40.901Z,98282.22
2023-05-16T04:38:08.946Z,98276.56
2023-05-16T04:40:40.356Z,98282.03
2023-05-16T04:43:08.394Z,98287.47
2023-05-16T04:45:37.629Z,98282.22
2023-05-16T04:48:06.214Z,98294.97
2023-05-16T04:50:38.097Z,98291.59
2023-05-16T04:53:06.151Z,98299.56
2023-05-16T04:55:34.310Z,98304.06
2023-05-16T04:58:02.355Z,98308.53
2023-05-16T05:00:30.563Z,98310.75
2023-05-16T05:02:59.158Z,98301.09
2023-05-16T05:05:29.603Z,98307.53
2023-05-16T05:08:00.299Z,98307.94
2023-05-16T05:10:28.602Z,98316.59
2023-05-16T05:12:56.579Z,98320.53
2023-05-16T05:15:24.826Z,98317.22
2023-05-16T05:17:53.267Z,98322.50
2023-05-16T05:20:21.632Z,98329.72
2023-05-16T05:22:49.700Z,98332.88
2023-05-16T05:25:19.359Z,98330.16
2023-05-16T05:27:47.442Z,98326.28
2023-05-16T05:30:17.803Z,98332.00
2023-05-16T05:32:45.916Z,98328.81
2023-05-16T05:35:15.527Z,98333.16
2023-05-16T05:37:43.585Z,98333.03
2023-05-16T05:40:12.382Z,98337.53
2023-05-16T05:42:41.718Z,98333.50
2023-05-16T05:45:10.482Z,98333.34
2023-05-16T05:47:38.969Z,98335.16
2023-05-16T05:50:07.820Z,98331.53
2023-05-16T05:52:36.025Z,98337.13
2023-05-16T05:55:04.392Z,98322.59
2023-05-16T05:57:32.503Z,98338.66
2023-05-16T06:00:01.926Z,98338.69
2023-05-16T06:02:36.109Z,98340.56
2023-05-16T06:05:04.328Z,98319.31
2023-05-16T06:07:32.385Z,98348.00
2023-05-16T06:10:05.078Z,98344.31
2023-05-16T06:12:33.389Z,98346.00
2023-05-16T06:15:05.607Z,98341.56
2023-05-16T06:17:33.659Z,98353.47
2023-05-16T06:20:01.761Z,98357.53
2023-05-16T06:22:29.824Z,98356.25
2023-05-16T06:24:57.914Z,98378.25
2023-05-16T06:27:26.587Z,98370.44
2023-05-16T06:29:54.680Z,98377.88
2023-05-16T06:32:24.040Z,98378.22
2023-05-16T06:34:52.068Z,98392.41
2023-05-16T06:37:23.450Z,98385.66
2023-05-16T06:39:51.649Z,98397.75
2023-05-16T06:42:20.481Z,98385.69
2023-05-16T06:44:50.024Z,98389.88
2023-05-16T06:47:18.092Z,98392.59
2023-05-16T06:49:47.657Z,98395.31
2023-05-16T06:52:15.759Z,98393.41
2023-05-16T06:54:43.917Z,98396.63
2023-05-16T06:57:14.433Z,98388.09
2023-05-16T06:59:42.803Z,98400.28
2023-05-16T07:02:10.980Z,98394.38
2023-05-16T07:04:41.361Z,98390.50
2023-05-16T07:07:10.748Z,98389.16
2023-05-16T07:09:39.073Z,98389.28
2023-05-16T07:12:10.597Z,98382.34
2023-05-16T07:14:38.897Z,98387.31
2023-05-16T07:17:07.021Z,98382.69
2023-05-16T07:19:35.500Z,98379.81
2023-05-16T07:22:03.668Z,98388.34
2023-05-16T07:24:33.127Z,98388.84
2023-05-16T07:27:01.316Z,98374.00
2023-05-16T07:29:30.406Z,98378.09
2023-05-16T07:31:58.531Z,98397.41
2023-05-16T07:34:26.670Z,98398.59
2023-05-16T07:36:54.804Z,98410.09
2023-05-16T07:39:22.961Z,98411.06
2023-05-16T07:41:52.404Z,98415.59
2023-05-16T07:44:20.554Z,98426.22
2023-05-16T07:46:48.641Z,98421.47
2023-05-16T07:49:18.973Z,98421.44
2023-05-16T07:51:47.360Z,98429.84
2023-05-16T07:54:15.629Z,98426.75
2023-05-16T07:56:43.739Z,98434.66
2023-05-16T07:59:13.218Z,98432.44
2023-05-16T08:01:41.374Z,98426.44
2023-05-16T08:04:09.637Z,98439.03
2023-05-16T08:06:38.038Z,98440.50
2023-05-16T08:09:06.274Z,98436.91
2023-05-16T08:11:34.351Z,98437.56
2023-05-16T08:14:02.390Z,98436.59
2023-05-16T08:16:32.381Z,98434.66
2023-05-16T08:19:02.658Z,98429.06
2023-05-16T08:21:31.835Z,98430.41
2023-05-16T08:23:59.889Z,98424.16
2023-05-16T08:26:27.938Z,98424.13
2023-05-16T08:28:56.205Z,98408.25
2023-05-16T08:31:24.372Z,98418.47
2023-05-16T08:33:53.808Z,98412.28
2023-05-16T08:36:21.894Z,98415.84
2023-05-16T08:38:50.502Z,98416.00
2023-05-16T08:41:22.070Z,98416.69
2023-05-16T08:43:52.765Z,98412.31
2023-05-16T08:46:23.678Z,98403.91
2023-05-16T08:48:53.402Z,98417.97
2023-05-16T08:51:25.301Z,98418.03
2023-05-16T08:53:55.198Z,98413.28
2023-05-16T08:56:24.155Z,98419.56
2023-05-16T08:58:55.219Z,98412.84
2023-05-16T09:01:23.674Z,98427.44
2023-05-16T09:03:52.366Z,98414.03
2023-05-16T09:06:24.795Z,98430.38
2023-05-16T09:08:53.105Z,98425.22
2023-05-16T09:11:21.738Z,98429.09
2023-05-16T09:13:50.098Z,98437.44
2023-05-16T09:16:19.146Z,98423.34
2023-05-16T09:18:48.487Z,98432.09
2023-05-16T09:21:16.789Z,98434.06
2023-05-16T09:23:46.534Z,98436.69
2023-05-16T09:26:14.931Z,98436.72
2023-05-16T09:28:44.436Z,98438.59
2023-05-16T09:31:23.062Z,98446.44
2023-05-16T09:33:51.212Z,98447.03
2023-05-16T09:36:19.672Z,98448.88
2023-05-16T09:38:49.514Z,98441.72
2023-05-16T09:41:19.747Z,98439.75
2023-05-16T09:43:48.241Z,98443.84
2023-05-16T09:46:19.696Z,98433.47
2023-05-16T09:48:49.027Z,98439.38
2023-05-16T09:51:17.190Z,98427.94
2023-05-16T09:53:45.318Z,98428.31
2023-05-16T09:56:16.829Z,98424.06
2023-05-16T09:58:47.866Z,98422.25
2023-05-16T10:01:16.300Z,98421.53
2023-05-16T10:03:44.788Z,98435.66
2023-05-16T10:06:16.587Z,98423.94
2023-05-16T10:08:45.338Z,98423.88
2023-05-16T10:11:16.104Z,98430.69
2023-05-16T10:13:52.962Z,98419.69
2023-05-16T10:16:23.771Z,98425.31
2023-05-16T10:18:53.353Z,98424.19
2023-05-16T10:21:24.089Z,98407.72
2023-05-16T10:23:53.980Z,98419.13
2023-05-16T10:26:24.698Z,98421.16
2023-05-16T10:28:54.195Z,98430.88
2023-05-16T10:31:22.614Z,98426.13
2023-05-16T10:33:51.478Z,98435.00
2023-05-16T10:36:22.413Z,98436.31
2023-05-16T10:38:52.343Z,98442.84
2023-05-16T10:41:22.092Z,98435.63
2023-05-16T10:43:59.514Z,98441.09
2023-05-16T10:46:29.128Z,98452.63
2023-05-16T10:48:58.877Z,98440.72
2023-05-16T10:51:38.130Z,98440.75
2023-05-16T10:54:08.910Z,98450.09
2023-05-16T10:56:37.815Z,98430.16
2023-05-16T10:59:24.705Z,98437.59
2023-05-16T11:01:57.509Z,98438.97
2023-05-16T11:04:49.858Z,98435.06
2023-05-16T11:07:20.376Z,98442.88
2023-05-16T11:10:04.191Z,98444.00
2023-05-16T11:12:45.190Z,98442.97
2023-05-16T11:15:23.065Z,98448.75
2023-05-16T11:17:52.024Z,98446.88
2023-05-16T11:20:27.583Z,98454.53
2023-05-16T11:23:20.694Z,98452.72
2023-05-16T11:25:51.149Z,98454.06
2023-05-16T11:28:20.596Z,98463.84
2023-05-16T11:30:52.693Z,98458.81
2023-05-16T11:33:21.174Z,98463.97
2023-05-16T11:36:14.621Z,98464.00
2023-05-16T11:38:44.454Z,98459.53
2023-05-16T11:41:15.453Z,98463.38
2023-05-16T11:43:45.756Z,98459.25
2023-05-16T11:46:18.062Z,98451.38
2023-05-16T11:48:47.531Z,98472.34
2023-05-16T11:51:19.050Z,98473.84
2023-05-16T11:53:47.920Z,98469.56
2023-05-16T11:56:16.351Z,98477.69
2023-05-16T11:58:44.444Z,98474.31
2023-05-16T12:01:12.964Z,98475.78
2023-05-16T12:03:42.529Z,98488.41
2023-05-16T12:06:10.949Z,98486.06
2023-05-16T12:08:39.074Z,98501.13
2023-05-16T12:11:07.318Z,98497.03
2023-05-16T12:13:35.824Z,98500.09
2023-05-16T12:16:03.988Z,98504.50
2023-05-16T12:18:32.356Z,98505.97
2023-05-16T12:21:01.873Z,98510.13
2023-05-16T12:23:31.409Z,98513.28
2023-05-16T12:26:07.909Z,98516.59
2023-05-16T12:28:39.213Z,98517.13
2023-05-16T12:31:23.108Z,98522.25
2023-05-16T12:34:01.220Z,98517.31
2023-05-16T12:36:32.737Z,98518.72
2023-05-16T12:39:01.618Z,98528.50
2023-05-16T12:41:31.769Z,98517.13
2023-05-16T12:44:13.062Z,98540.34
2023-05-16T12:46:44.970Z,98536.25
2023-05-16T12:49:16.047Z,98531.28
2023-05-16T12:51:51.452Z,98528.09
2023-05-16T12:54:20.532Z,98528.97
2023-05-16T12:56:48.665Z,98518.44
2023-05-16T12:59:16.772Z,98517.19
2023-05-16T13:01:46.385Z,98519.72
2023-05-16T13:04:18.993Z,98525.38
2023-05-16T13:09:25.143Z,98521.56
2023-05-16T13:11:53.585Z,98531.16
2023-05-16T13:14:21.637Z,98526.44
2023-05-16T13:16:49.725Z,98530.63
2023-05-16T13:19:17.908Z,98529.16
2023-05-16T13:21:46.099Z,98536.66
2023-05-16T13:24:15.606Z,98520.91
2023-05-16T13:26:43.717Z,98531.50
2023-05-16T13:29:14.939Z,98528.03
2023-05-16T13:31:45.482Z,98537.84
2023-05-16T13:34:13.540Z,98535.75
2023-05-16T13:36:52.946Z,98535.69
2023-05-16T13:39:26.046Z,98547.38
2023-05-16T13:41:54.401Z,98541.00
2023-05-16T13:44:24.767Z,98541.34
2023-05-16T13:46:53.040Z,98535.03
2023-05-16T13:49:24.258Z,98542.81
2023-05-16T13:51:52.942Z,98542.22
2023-05-16T13:54:21.874Z,98533.81
2023-05-16T13:56:51.473Z,98546.06
2023-05-16T13:59:27.497Z,98549.13
2023-05-16T14:02:07.640Z,98546.97
2023-05-16T14:04:35.862Z,98546.97
2023-05-16T14:07:03.967Z,98549.03
2023-05-16T14:09:35.158Z,98555.78
2023-05-16T14:12:05.083Z,98545.69
2023-05-16T14:14:33.288Z,98546.06
2023-05-16T14:17:01.363Z,98548.16
2023-05-16T14:19:29.919Z,98546.94
2023-05-16T14:21:58.082Z,98547.81
2023-05-16T14:24:26.598Z,98545.56
2023-05-16T14:26:55.351Z,98547.66
2023-05-16T14:29:25.394Z,98550.63
2023-05-16T14:31:53.768Z,98553.66
2023-05-16T14:34:22.503Z,98549.38
2023-05-16T14:36:51.254Z,98552.69
2023-05-16T14:39:19.453Z,98551.13
2023-05-16T14:41:47.602Z,98548.19
2023-05-16T14:44:15.719Z,98547.72
2023-05-16T14:46:45.600Z,98548.50
2023-05-16T14:49:13.871Z,98549.41
2023-05-16T14:51:44.883Z,98554.41
2023-05-16T14:54:13.126Z,98555.91
2023-05-16T14:56:41.632Z,98558.47
2023-05-16T14:59:09.727Z,98548.00
2023-05-16T15:01:37.866Z,98556.88
2023-05-16T15:04:07.442Z,98555.00
2023-05-16T15:06:36.502Z,98559.06
2023-05-16T15:09:05.785Z,98550.34
2023-05-16T15:11:33.838Z,98561.63
2023-05-16T15:14:01.878Z,98566.16
2023-05-16T15:16:30.743Z,98564.06
2023-05-16T15:18:58.885Z,98560.41
2023-05-16T15:21:28.383Z,98559.00
2023-05-16T15:23:56.506Z,98568.44
2023-05-16T15:26:24.696Z,98578.94
2023-05-16T15:28:55.436Z,98569.47
2023-05-16T15:31:23.759Z,98569.13
2023-05-16T15:33:51.960Z,98564.34
2023-05-16T15:36:20.051Z,98572.75
2023-05-16T15:38:49.563Z,98566.84
2023-05-16T15:41:31.901Z,98573.56
2023-05-16T15:44:06.195Z,98572.22
2023-05-16T15:46:34.430Z,98576.34
2023-05-16T15:49:02.638Z,98579.78
2023-05-16T15:51:30.872Z,98584.03
2023-05-16T15:54:02.780Z,98587.66
2023-05-16T15:56:30.905Z,98582.31
2023-05-16T15:58:58.988Z,98583.97
2023-05-16T16:01:30.570Z,98594.75
2023-05-16T16:03:58.896Z,98586.59
2023-05-16T16:06:27.071Z,98570.78
2023-05-16T16:08:55.492Z,98592.13
2023-05-16T16:11:24.957Z,98588.63
2023-05-16T16:13:53.080Z,98588.50
2023-05-16T16:16:21.398Z,98593.03
2023-05-16T16:18:50.162Z,98598.19
2023-05-16T16:21:18.423Z,98589.13
2023-05-16T16:23:46.612Z,98588.91
2023-05-16T16:27:01.331Z,98601.25
2023-05-16T16:29:29.990Z,98603.88
2023-05-16T16:31:58.438Z,98596.50
2023-05-16T16:34:26.719Z,98584.59
2023-05-16T16:36:54.885Z,98604.81
2023-05-16T16:39:23.016Z,98599.34
2023-05-16T16:41:51.146Z,98596.81
2023-05-16T16:44:20.279Z,98604.00
2023-05-16T16:46:50.120Z,98617.00
2023-05-16T16:49:19.147Z,98612.59
2023-05-16T16:51:47.642Z,98607.06
2023-05-16T16:54:15.956Z,98609.25
2023-05-16T16:56:44.276Z,98610.75
2023-05-16T16:59:12.558Z,98600.63
2023-05-16T17:01:41.182Z,98600.41
2023-05-16T17:04:10.818Z,98605.59
2023-05-16T17:06:41.761Z,98603.00
2023-05-16T17:09:13.840Z,98606.38
2023-05-16T17:11:42.720Z,98605.38
2023-05-16T17:14:11.693Z,98611.81
2023-05-16T17:16:40.865Z,98611.91
2023-05-16T17:19:10.796Z,98611.47
2023-05-16T17:21:40.481Z,98615.22
2023-05-16T17:24:08.717Z,98613.38
2023-05-16T17:26:36.867Z,98615.03
2023-05-16T17:29:05.171Z,98620.81
2023-05-16T17:31:36.272Z,98619.38
2023-05-16T17:34:06.608Z,98620.53
2023-05-16T17:36:37.071Z,98623.31
2023-05-16T17:39:07.887Z,98616.94
2023-05-16T17:41:36.297Z,98631.53
2023-05-16T17:44:06.714Z,98618.38
2023-05-16T17:46:38.325Z,98622.44
2023-05-16T17:49:09.416Z,98628.53
2023-05-16T17:51:48.435Z,98636.59
2023-05-16T17:54:17.503Z,98642.03
2023-05-16T17:56:45.759Z,98638.94
2023-05-16T17:59:14.871Z,98642.53
2023-05-16T18:01:43.474Z,98641.09
2023-05-16T18:04:11.885Z,98654.94
2023-05-16T18:06:40.154Z,98652.31
2023-05-16T18:09:10.273Z,98647.97
2023-05-16T18:11:40.791Z,98650.94
2023-05-16T18:14:12.823Z,98659.41
2023-05-16T18:16:41.050Z,98661.75
2023-05-16T18:19:09.690Z,98657.06
2023-05-16T18:21:38.361Z,98665.88
2023-05-16T18:24:08.302Z,98668.38
2023-05-16T18:26:40.224Z,98673.63
2023-05-16T18:29:10.645Z,98678.94
2023-05-16T18:31:41.162Z,98681.53
2023-05-16T18:34:09.419Z,98674.56
2023-05-16T18:36:37.551Z,98675.41
2023-05-16T18:39:05.683Z,98689.19
2023-05-16T18:41:33.800Z,98685.41
2023-05-16T18:44:03.275Z,98692.50
2023-05-16T18:46:33.538Z,98696.03
2023-05-16T18:49:01.909Z,98698.50
2023-05-16T18:51:30.225Z,98702.53
2023-05-16T18:53:58.398Z,98703.94
2023-05-16T18:56:26.805Z,98707.34
2023-05-16T18:58:54.924Z,98704.88
2023-05-16T19:01:27.475Z,98709.97
2023-05-16T19:03:55.753Z,98722.22
2023-05-16T19:06:24.101Z,98719.28
2023-05-16T19:08:52.234Z,98721.88
2023-05-16T19:11:22.444Z,98725.28
2023-05-16T19:13:54.891Z,98731.63
2023-05-16T19:16:23.019Z,98735.28
2023-05-16T19:18:54.805Z,98739.50
2023-05-16T19:21:23.027Z,98744.47
2023-05-16T19:23:51.323Z,98746.69
2023-05-16T19:26:19.561Z,98745.84
2023-05-16T19:28:48.116Z,98746.03
2023-05-16T19:31:16.620Z,98763.38
2023-05-16T19:33:44.750Z,98752.59
2023-05-16T19:36:14.381Z,98755.84
2023-05-16T19:38:42.519Z,98757.59
2023-05-16T19:41:10.635Z,98768.78
2023-05-16T19:43:38.937Z,98762.16
2023-05-16T19:46:07.091Z,98765.19
2023-05-16T19:48:37.872Z,98766.22
2023-05-16T19:51:06.334Z,98767.78
2023-05-16T19:53:35.874Z,98771.66
2023-05-16T19:56:04.360Z,98779.78
2023-05-16T19:58:32.498Z,98779.81
2023-05-16T20:01:02.758Z,98778.25
2023-05-16T20:03:31.068Z,98780.66
2023-05-16T20:05:59.272Z,98782.63
2023-05-16T20:08:27.481Z,98793.81
2023-05-16T20:10:57.300Z,98794.88
2023-05-16T20:13:26.130Z,98798.97
2023-05-16T20:15:54.235Z,98803.31
2023-05-16T20:18:22.386Z,98799.91
2023-05-16T20:20:50.681Z,98800.28
2023-05-16T20:23:18.780Z,98802.72
2023-05-16T20:25:46.889Z,98809.38
2023-05-16T20:28:16.729Z,98807.06
2023-05-16T20:30:44.867Z,98807.97
2023-05-16T20:33:13.081Z,98808.78
2023-05-16T20:35:41.181Z,98808.09
2023-05-16T20:38:09.426Z,98813.75
2023-05-16T20:40:37.648Z,98815.69
2023-05-16T20:43:05.774Z,98811.41
2023-05-16T20:45:59.153Z,98812.69
2023-05-16T20:48:27.385Z,98821.19
2023-05-16T20:50:57.680Z,98825.59
2023-05-16T20:53:25.793Z,98828.25
2023-05-16T20:55:53.924Z,98820.19
2023-05-16T20:58:22.008Z,98830.16
2023-05-16T21:00:53.785Z,98828.06
2023-05-16T21:03:22.038Z,98833.00
2023-05-16T21:05:50.370Z,98827.16
2023-05-16T21:08:18.460Z,98819.66
2023-05-16T21:10:49.739Z,98827.56
2023-05-16T21:13:20.876Z,98801.59
2023-05-16T21:15:51.941Z,98833.75
2023-05-16T21:18:21.621Z,98835.97
2023-05-16T21:20:50.242Z,98835.91
2023-05-16T21:23:18.348Z,98835.84
2023-05-16T21:25:46.574Z,98832.38
2023-05-16T21:28:14.725Z,98831.84
2023-05-16T21:30:43.429Z,98840.00
2023-05-16T21:33:11.670Z,98843.41
2023-05-16T21:35:41.191Z,98837.09
2023-05-16T21:38:09.460Z,98847.53
2023-05-16T21:40:37.569Z,98845.97
2023-05-16T21:43:05.678Z,98844.56
2023-05-16T21:45:33.865Z,98850.97
2023-05-16T21:48:02.130Z,98853.06
2023-05-16T21:50:30.884Z,98854.56
2023-05-16T21:53:00.618Z,98856.16
2023-05-16T21:55:29.185Z,98856.47
2023-05-16T21:57:59.800Z,98862.22
2023-05-16T22:02:40.564Z,98871.59
2023-05-16T22:05:09.503Z,98869.94
2023-05-16T22:07:38.060Z,98874.75
2023-05-16T22:10:10.619Z,98867.19
2023-05-16T22:12:41.659Z,98880.78
2023-05-16T22:15:10.232Z,98878.13
2023-05-16T22:17:41.624Z,98869.53
2023-05-16T22:20:10.498Z,98879.72
2023-05-16T22:22:38.801Z,98886.44
2023-05-16T22:25:07.386Z,98879.22
2023-05-16T22:27:35.564Z,98881.09
2023-05-16T22:30:06.952Z,98885.47
2023-05-16T22:32:35.322Z,98891.56
2023-05-16T22:35:04.968Z,98887.00
2023-05-16T22:37:33.080Z,98881.53
2023-05-16T22:40:01.200Z,98885.63
2023-05-16T22:42:30.434Z,98897.81
2023-05-16T22:44:58.691Z,98892.88
2023-05-16T22:47:28.885Z,98885.41
2023-05-16T22:49:57.135Z,98891.59
2023-05-16T22:52:26.652Z,98902.69
2023-05-16T22:54:54.784Z,98900.13
2023-05-16T22:57:22.906Z,98900.22
2023-05-16T22:59:51.014Z,98909.00
2023-05-16T23:02:19.285Z,98900.41
2023-05-16T23:04:47.485Z,98897.34
2023-05-16T23:07:15.630Z,98909.00
2023-05-16T23:09:45.229Z,98897.50
2023-05-16T23:12:13.302Z,98900.03
2023-05-16T23:14:41.469Z,98907.81
2023-05-16T23:17:09.583Z,98907.84
2023-05-16T23:19:40.050Z,98910.88
2023-05-16T23:22:08.285Z,98913.56
2023-05-16T23:24:36.326Z,98914.25
2023-05-16T23:27:05.941Z,98915.66
2023-05-16T23:29:34.006Z,98911.91
2023-05-16T23:32:02.195Z,98895.16
2023-05-16T23:34:30.541Z,98913.78
2023-05-16T23:36:58.710Z,98908.97
2023-05-16T23:39:26.893Z,98922.94
2023-05-16T23:41:55.122Z,98922.09
2023-05-16T23:44:24.886Z,98924.59
2023-05-16T23:46:53.065Z,98929.97
2023-05-16T23:49:21.278Z,98934.19
2023-05-16T23:51:57.265Z,98931.28
2023-05-16T23:54:26.364Z,98930.25
2023-05-16T23:56:54.573Z,98925.06
2023-05-16T23:59:24.130Z,98936.31
